sensor_id;sensor_type;location;lat;lon;timestamp;temperature;humidity
12948;DHT22;6539;49.476;8.484;2022-11-30T00:01:22;9.60;99.90
12948;DHT22;6539;49.476;8.484;2022-11-30T00:03:52;9.80;99.90
12948;DHT22;6539;49.476;8.484;2022-11-30T00:06:22;9.80;99.90
12948;DHT22;6539;49.476;8.484;2022-11-30T00:08:52;9.70;99.90
12948;DHT22;6539;49.476;8.484;2022-11-30T00:11:19;9.70;99.90
12948;DHT22;6539;49.476;8.484;2022-11-30T00:13:46;9.90;99.90
12948;DHT22;6539;49.476;8.484;2022-11-30T00:16:13;9.70;99.90
12948;DHT22;6539;49.476;8.484;2022-11-30T00:18:39;9.90;99.90
12948;DHT22;6539;49.476;8.484;2022-11-30T00:21:07;9.70;99.90
12948;DHT22;6539;49.476;8.484;2022-11-30T00:23:38;9.50;99.90
12948;DHT22;6539;49.476;8.484;2022-11-30T00:26:09;9.80;99.90
12948;DHT22;6539;49.476;8.484;2022-11-30T00:28:41;9.60;99.90
12948;DHT22;6539;49.476;8.484;2022-11-30T00:31:11;9.80;99.90
12948;DHT22;6539;49.476;8.484;2022-11-30T00:33:40;9.70;99.90
12948;DHT22;6539;49.476;8.484;2022-11-30T00:36:14;9.70;99.90
12948;DHT22;6539;49.476;8.484;2022-11-30T00:38:42;9.60;99.90
12948;DHT22;6539;49.476;8.484;2022-11-30T00:41:11;9.60;99.90
12948;DHT22;6539;49.476;8.484;2022-11-30T00:43:38;9.60;99.90
12948;DHT22;6539;49.476;8.484;2022-11-30T00:46:04;9.70;99.90
12948;DHT22;6539;49.476;8.484;2022-11-30T00:48:30;9.80;99.90
12948;DHT22;6539;49.476;8.484;2022-11-30T00:50:58;9.70;99.90
12948;DHT22;6539;49.476;8.484;2022-11-30T00:55:52;9.70;99.90
12948;DHT22;6539;49.476;8.484;2022-11-30T00:58:18;9.50;99.90
12948;DHT22;6539;49.476;8.484;2022-11-30T01:00:47;9.60;99.90
12948;DHT22;6539;49.476;8.484;2022-11-30T01:03:13;9.70;99.90
12948;DHT22;6539;49.476;8.484;2022-11-30T01:05:44;9.70;99.90
12948;DHT22;6539;49.476;8.484;2022-11-30T01:08:11;9.70;99.90
12948;DHT22;6539;49.476;8.484;2022-11-30T01:10:42;9.70;99.90
12948;DHT22;6539;49.476;8.484;2022-11-30T01:13:10;9.70;99.90
12948;DHT22;6539;49.476;8.484;2022-11-30T01:15:42;9.80;99.90
12948;DHT22;6539;49.476;8.484;2022-11-30T01:18:11;9.70;99.90
12948;DHT22;6539;49.476;8.484;2022-11-30T01:20:40;9.50;99.90
12948;DHT22;6539;49.476;8.484;2022-11-30T01:25:35;9.60;99.90
12948;DHT22;6539;49.476;8.484;2022-11-30T01:28:04;9.60;99.90
12948;DHT22;6539;49.476;8.484;2022-11-30T01:30:30;9.70;99.90
12948;DHT22;6539;49.476;8.484;2022-11-30T01:33:02;9.70;99.90
12948;DHT22;6539;49.476;8.484;2022-11-30T01:35:31;9.70;99.90
12948;DHT22;6539;49.476;8.484;2022-11-30T01:40:28;9.40;99.90
12948;DHT22;6539;49.476;8.484;2022-11-30T01:45:22;9.60;99.90
12948;DHT22;6539;49.476;8.484;2022-11-30T01:47:53;9.60;99.90
12948;DHT22;6539;49.476;8.484;2022-11-30T01:50:30;9.60;99.90
12948;DHT22;6539;49.476;8.484;2022-11-30T01:53:02;9.40;99.90
12948;DHT22;6539;49.476;8.484;2022-11-30T01:55:44;9.50;99.90
12948;DHT22;6539;49.476;8.484;2022-11-30T01:58:15;9.40;99.90
12948;DHT22;6539;49.476;8.484;2022-11-30T02:00:50;9.70;99.90
12948;DHT22;6539;49.476;8.484;2022-11-30T02:03:41;9.50;99.90
12948;DHT22;6539;49.476;8.484;2022-11-30T02:06:15;9.50;99.90
12948;DHT22;6539;49.476;8.484;2022-11-30T02:08:42;9.60;99.90
12948;DHT22;6539;49.476;8.484;2022-11-30T02:11:13;9.50;99.90
12948;DHT22;6539;49.476;8.484;2022-11-30T02:14:00;9.60;99.90
12948;DHT22;6539;49.476;8.484;2022-11-30T02:30:32;9.30;99.90
12948;DHT22;6539;49.476;8.484;2022-11-30T02:33:13;9.50;99.90
12948;DHT22;6539;49.476;8.484;2022-11-30T02:35:44;9.60;99.90
12948;DHT22;6539;49.476;8.484;2022-11-30T02:38:14;9.70;99.90
12948;DHT22;6539;49.476;8.484;2022-11-30T02:40:45;9.60;99.90
12948;DHT22;6539;49.476;8.484;2022-11-30T02:43:15;9.50;99.90
12948;DHT22;6539;49.476;8.484;2022-11-30T02:46:10;9.50;99.90
12948;DHT22;6539;49.476;8.484;2022-11-30T02:49:04;9.50;99.90
12948;DHT22;6539;49.476;8.484;2022-11-30T02:51:40;9.40;99.90
12948;DHT22;6539;49.476;8.484;2022-11-30T02:54:08;9.30;99.90
12948;DHT22;6539;49.476;8.484;2022-11-30T02:56:34;9.30;99.90
12948;DHT22;6539;49.476;8.484;2022-11-30T02:59:03;9.50;99.90
12948;DHT22;6539;49.476;8.484;2022-11-30T03:01:41;9.50;99.90
12948;DHT22;6539;49.476;8.484;2022-11-30T03:04:10;9.50;99.90
12948;DHT22;6539;49.476;8.484;2022-11-30T03:06:38;9.40;99.90
12948;DHT22;6539;49.476;8.484;2022-11-30T03:09:08;9.40;99.90
12948;DHT22;6539;49.476;8.484;2022-11-30T03:11:39;9.70;99.90
12948;DHT22;6539;49.476;8.484;2022-11-30T03:14:07;9.50;99.90
12948;DHT22;6539;49.476;8.484;2022-11-30T03:16:33;9.40;99.90
12948;DHT22;6539;49.476;8.484;2022-11-30T03:19:01;9.30;99.90
12948;DHT22;6539;49.476;8.484;2022-11-30T03:21:27;9.50;99.90
12948;DHT22;6539;49.476;8.484;2022-11-30T03:23:53;9.50;99.90
12948;DHT22;6539;49.476;8.484;2022-11-30T03:26:18;9.50;99.90
12948;DHT22;6539;49.476;8.484;2022-11-30T03:31:15;9.80;99.90
12948;DHT22;6539;49.476;8.484;2022-11-30T03:33:42;9.70;99.90
12948;DHT22;6539;49.476;8.484;2022-11-30T03:36:10;9.20;99.90
12948;DHT22;6539;49.476;8.484;2022-11-30T03:38:37;9.60;99.90
12948;DHT22;6539;49.476;8.484;2022-11-30T03:41:14;9.50;99.90
12948;DHT22;6539;49.476;8.484;2022-11-30T03:43:44;9.50;99.90
12948;DHT22;6539;49.476;8.484;2022-11-30T03:46:14;9.50;99.90
12948;DHT22;6539;49.476;8.484;2022-11-30T03:48:44;9.40;99.90
12948;DHT22;6539;49.476;8.484;2022-11-30T03:51:11;9.50;99.90
12948;DHT22;6539;49.476;8.484;2022-11-30T03:53:41;9.50;99.90
12948;DHT22;6539;49.476;8.484;2022-11-30T03:56:08;9.50;99.90
12948;DHT22;6539;49.476;8.484;2022-11-30T03:58:38;9.50;99.90
12948;DHT22;6539;49.476;8.484;2022-11-30T04:03:43;9.50;99.90
12948;DHT22;6539;49.476;8.484;2022-11-30T04:06:10;9.50;99.90
12948;DHT22;6539;49.476;8.484;2022-11-30T04:08:40;9.30;99.90
12948;DHT22;6539;49.476;8.484;2022-11-30T04:11:09;9.20;99.90
12948;DHT22;6539;49.476;8.484;2022-11-30T04:13:39;9.70;99.90
12948;DHT22;6539;49.476;8.484;2022-11-30T04:16:06;9.30;99.90
12948;DHT22;6539;49.476;8.484;2022-11-30T04:18:33;9.20;99.90
12948;DHT22;6539;49.476;8.484;2022-11-30T04:21:01;9.40;99.90
12948;DHT22;6539;49.476;8.484;2022-11-30T04:23:35;9.30;99.90
12948;DHT22;6539;49.476;8.484;2022-11-30T04:26:07;9.50;99.90
12948;DHT22;6539;49.476;8.484;2022-11-30T04:28:39;9.40;99.90
12948;DHT22;6539;49.476;8.484;2022-11-30T04:31:06;9.20;99.90
12948;DHT22;6539;49.476;8.484;2022-11-30T04:33:32;9.20;99.90
12948;DHT22;6539;49.476;8.484;2022-11-30T04:36:00;9.50;99.90
12948;DHT22;6539;49.476;8.484;2022-11-30T04:38:34;9.40;99.90
12948;DHT22;6539;49.476;8.484;2022-11-30T04:41:09;9.50;99.90
12948;DHT22;6539;49.476;8.484;2022-11-30T04:43:40;9.60;99.90
12948;DHT22;6539;49.476;8.484;2022-11-30T04:46:06;9.40;99.90
12948;DHT22;6539;49.476;8.484;2022-11-30T04:48:34;9.40;99.90
12948;DHT22;6539;49.476;8.484;2022-11-30T04:51:05;9.50;99.90
12948;DHT22;6539;49.476;8.484;2022-11-30T04:53:33;9.40;99.90
12948;DHT22;6539;49.476;8.484;2022-11-30T04:56:10;9.30;99.90
12948;DHT22;6539;49.476;8.484;2022-11-30T04:58:38;9.40;99.90
12948;DHT22;6539;49.476;8.484;2022-11-30T05:01:04;9.30;99.90
12948;DHT22;6539;49.476;8.484;2022-11-30T05:03:33;9.30;99.90
12948;DHT22;6539;49.476;8.484;2022-11-30T05:06:01;9.60;99.90
12948;DHT22;6539;49.476;8.484;2022-11-30T05:08:30;9.40;99.90
12948;DHT22;6539;49.476;8.484;2022-11-30T05:10:56;9.40;99.90
12948;DHT22;6539;49.476;8.484;2022-11-30T05:13:28;9.60;99.90
12948;DHT22;6539;49.476;8.484;2022-11-30T05:15:59;9.60;99.90
12948;DHT22;6539;49.476;8.484;2022-11-30T05:18:25;9.40;99.90
12948;DHT22;6539;49.476;8.484;2022-11-30T05:20:51;9.60;99.90
12948;DHT22;6539;49.476;8.484;2022-11-30T05:23:20;9.50;99.90
12948;DHT22;6539;49.476;8.484;2022-11-30T05:25:46;9.30;99.90
12948;DHT22;6539;49.476;8.484;2022-11-30T05:28:15;9.40;99.90
12948;DHT22;6539;49.476;8.484;2022-11-30T05:33:10;9.50;99.90
12948;DHT22;6539;49.476;8.484;2022-11-30T05:35:36;9.70;99.90
12948;DHT22;6539;49.476;8.484;2022-11-30T05:38:03;9.70;99.90
12948;DHT22;6539;49.476;8.484;2022-11-30T05:40:31;9.50;99.90
12948;DHT22;6539;49.476;8.484;2022-11-30T05:43:01;9.30;99.90
12948;DHT22;6539;49.476;8.484;2022-11-30T05:45:33;9.50;99.90
12948;DHT22;6539;49.476;8.484;2022-11-30T05:47:59;9.50;99.90
12948;DHT22;6539;49.476;8.484;2022-11-30T05:50:24;9.50;99.90
12948;DHT22;6539;49.476;8.484;2022-11-30T05:52:54;9.50;99.90
12948;DHT22;6539;49.476;8.484;2022-11-30T05:55:26;9.50;99.90
12948;DHT22;6539;49.476;8.484;2022-11-30T05:57:56;9.40;99.90
12948;DHT22;6539;49.476;8.484;2022-11-30T06:00:24;9.30;99.90
12948;DHT22;6539;49.476;8.484;2022-11-30T06:02:57;9.20;99.90
12948;DHT22;6539;49.476;8.484;2022-11-30T06:05:25;9.20;99.90
12948;DHT22;6539;49.476;8.484;2022-11-30T06:07:52;9.70;99.90
12948;DHT22;6539;49.476;8.484;2022-11-30T06:10:18;9.50;99.90
12948;DHT22;6539;49.476;8.484;2022-11-30T06:12:46;9.50;99.90
12948;DHT22;6539;49.476;8.484;2022-11-30T06:15:13;9.70;99.90
12948;DHT22;6539;49.476;8.484;2022-11-30T06:17:41;9.40;99.90
12948;DHT22;6539;49.476;8.484;2022-11-30T06:20:07;9.60;99.90
12948;DHT22;6539;49.476;8.484;2022-11-30T06:22:35;9.30;99.90
12948;DHT22;6539;49.476;8.484;2022-11-30T06:25:04;9.30;99.90
12948;DHT22;6539;49.476;8.484;2022-11-30T06:27:30;9.50;99.90
12948;DHT22;6539;49.476;8.484;2022-11-30T06:29:57;9.40;99.90
12948;DHT22;6539;49.476;8.484;2022-11-30T06:32:22;9.30;99.90
12948;DHT22;6539;49.476;8.484;2022-11-30T06:34:48;9.50;99.90
12948;DHT22;6539;49.476;8.484;2022-11-30T06:37:14;9.60;99.90
12948;DHT22;6539;49.476;8.484;2022-11-30T06:39:39;9.80;99.90
12948;DHT22;6539;49.476;8.484;2022-11-30T06:42:08;9.50;99.90
12948;DHT22;6539;49.476;8.484;2022-11-30T06:44:33;9.40;99.90
12948;DHT22;6539;49.476;8.484;2022-11-30T06:46:59;9.80;99.90
12948;DHT22;6539;49.476;8.484;2022-11-30T06:49:30;9.50;99.90
12948;DHT22;6539;49.476;8.484;2022-11-30T06:51:55;9.40;99.90
12948;DHT22;6539;49.476;8.484;2022-11-30T06:56:47;9.50;99.90
12948;DHT22;6539;49.476;8.484;2022-11-30T06:59:16;9.40;99.90
12948;DHT22;6539;49.476;8.484;2022-11-30T07:01:42;9.60;99.90
12948;DHT22;6539;49.476;8.484;2022-11-30T07:04:08;9.30;99.90
12948;DHT22;6539;49.476;8.484;2022-11-30T07:06:33;9.50;99.90
12948;DHT22;6539;49.476;8.484;2022-11-30T07:09:03;9.50;99.90
12948;DHT22;6539;49.476;8.484;2022-11-30T07:11:30;9.30;99.90
12948;DHT22;6539;49.476;8.484;2022-11-30T07:13:57;9.50;99.90
12948;DHT22;6539;49.476;8.484;2022-11-30T07:16:28;9.50;99.90
12948;DHT22;6539;49.476;8.484;2022-11-30T07:18:54;9.70;99.90
12948;DHT22;6539;49.476;8.484;2022-11-30T07:23:48;9.40;99.90
12948;DHT22;6539;49.476;8.484;2022-11-30T07:26:32;9.70;99.90
12948;DHT22;6539;49.476;8.484;2022-11-30T07:28:58;9.50;99.90
12948;DHT22;6539;49.476;8.484;2022-11-30T07:31:29;9.50;99.90
12948;DHT22;6539;49.476;8.484;2022-11-30T07:34:06;9.50;99.90
12948;DHT22;6539;49.476;8.484;2022-11-30T07:36:34;9.50;99.90
12948;DHT22;6539;49.476;8.484;2022-11-30T07:39:02;10.00;99.90
12948;DHT22;6539;49.476;8.484;2022-11-30T07:41:30;9.80;99.90
12948;DHT22;6539;49.476;8.484;2022-11-30T07:43:59;9.50;99.90
12948;DHT22;6539;49.476;8.484;2022-11-30T07:46:25;9.80;99.90
12948;DHT22;6539;49.476;8.484;2022-11-30T07:48:50;9.70;99.90
12948;DHT22;6539;49.476;8.484;2022-11-30T07:51:19;9.60;99.90
12948;DHT22;6539;49.476;8.484;2022-11-30T07:53:46;9.40;99.90
12948;DHT22;6539;49.476;8.484;2022-11-30T07:56:14;9.40;99.90
12948;DHT22;6539;49.476;8.484;2022-11-30T07:58:44;9.70;99.90
12948;DHT22;6539;49.476;8.484;2022-11-30T08:01:13;9.70;99.90
12948;DHT22;6539;49.476;8.484;2022-11-30T08:03:41;9.80;99.90
12948;DHT22;6539;49.476;8.484;2022-11-30T08:06:09;9.90;99.90
12948;DHT22;6539;49.476;8.484;2022-11-30T08:08:39;9.70;99.90
12948;DHT22;6539;49.476;8.484;2022-11-30T08:11:09;10.10;99.90
12948;DHT22;6539;49.476;8.484;2022-11-30T08:13:37;9.70;99.90
12948;DHT22;6539;49.476;8.484;2022-11-30T08:16:05;10.00;99.90
12948;DHT22;6539;49.476;8.484;2022-11-30T08:18:33;9.60;99.90
12948;DHT22;6539;49.476;8.484;2022-11-30T08:21:05;9.90;99.90
12948;DHT22;6539;49.476;8.484;2022-11-30T08:23:37;9.70;99.90
12948;DHT22;6539;49.476;8.484;2022-11-30T08:26:16;9.80;99.90
12948;DHT22;6539;49.476;8.484;2022-11-30T08:28:47;9.70;99.90
12948;DHT22;6539;49.476;8.484;2022-11-30T08:31:36;9.80;99.90
12948;DHT22;6539;49.476;8.484;2022-11-30T08:34:10;9.80;99.90
12948;DHT22;6539;49.476;8.484;2022-11-30T08:36:38;9.60;99.90
12948;DHT22;6539;49.476;8.484;2022-11-30T08:39:06;9.80;99.90
12948;DHT22;6539;49.476;8.484;2022-11-30T08:41:36;9.80;99.90
12948;DHT22;6539;49.476;8.484;2022-11-30T08:44:04;9.80;99.90
12948;DHT22;6539;49.476;8.484;2022-11-30T08:46:33;9.80;99.90
12948;DHT22;6539;49.476;8.484;2022-11-30T08:48:59;9.80;99.90
12948;DHT22;6539;49.476;8.484;2022-11-30T08:51:25;9.80;99.90
12948;DHT22;6539;49.476;8.484;2022-11-30T08:53:56;9.80;99.90
12948;DHT22;6539;49.476;8.484;2022-11-30T08:56:26;9.90;99.90
12948;DHT22;6539;49.476;8.484;2022-11-30T08:58:54;9.80;99.90
12948;DHT22;6539;49.476;8.484;2022-11-30T09:01:22;9.60;99.90
12948;DHT22;6539;49.476;8.484;2022-11-30T09:03:55;9.60;99.90
12948;DHT22;6539;49.476;8.484;2022-11-30T09:06:27;9.90;99.90
12948;DHT22;6539;49.476;8.484;2022-11-30T09:08:57;10.00;99.90
12948;DHT22;6539;49.476;8.484;2022-11-30T09:11:28;9.80;99.90
12948;DHT22;6539;49.476;8.484;2022-11-30T09:13:58;10.00;99.90
12948;DHT22;6539;49.476;8.484;2022-11-30T09:16:26;9.70;99.90
12948;DHT22;6539;49.476;8.484;2022-11-30T09:18:55;9.70;99.90
12948;DHT22;6539;49.476;8.484;2022-11-30T09:21:23;9.80;99.90
12948;DHT22;6539;49.476;8.484;2022-11-30T09:23:50;9.70;99.90
12948;DHT22;6539;49.476;8.484;2022-11-30T09:26:20;9.80;99.90
12948;DHT22;6539;49.476;8.484;2022-11-30T09:28:48;9.70;99.90
12948;DHT22;6539;49.476;8.484;2022-11-30T09:31:18;9.80;99.90
12948;DHT22;6539;49.476;8.484;2022-11-30T09:33:46;9.70;99.90
12948;DHT22;6539;49.476;8.484;2022-11-30T09:36:16;9.60;99.90
12948;DHT22;6539;49.476;8.484;2022-11-30T09:38:43;9.80;99.90
12948;DHT22;6539;49.476;8.484;2022-11-30T09:44:47;9.80;99.90
12948;DHT22;6539;49.476;8.484;2022-11-30T09:47:45;9.50;99.90
12948;DHT22;6539;49.476;8.484;2022-11-30T09:50:30;9.70;99.90
12948;DHT22;6539;49.476;8.484;2022-11-30T09:53:05;9.80;99.90
12948;DHT22;6539;49.476;8.484;2022-11-30T09:55:40;9.80;99.90
12948;DHT22;6539;49.476;8.484;2022-11-30T09:58:45;9.80;99.90
12948;DHT22;6539;49.476;8.484;2022-11-30T10:01:04;9.50;99.90
12948;DHT22;6539;49.476;8.484;2022-11-30T10:03:45;9.60;99.90
12948;DHT22;6539;49.476;8.484;2022-11-30T10:06:19;9.90;99.90
12948;DHT22;6539;49.476;8.484;2022-11-30T10:11:42;9.90;99.90
12948;DHT22;6539;49.476;8.484;2022-11-30T10:14:34;9.80;99.90
12948;DHT22;6539;49.476;8.484;2022-11-30T10:20:17;9.60;99.90
12948;DHT22;6539;49.476;8.484;2022-11-30T10:26:14;10.00;99.90
12948;DHT22;6539;49.476;8.484;2022-11-30T10:28:56;10.10;99.90
12948;DHT22;6539;49.476;8.484;2022-11-30T10:31:37;10.00;99.90
12948;DHT22;6539;49.476;8.484;2022-11-30T10:34:23;10.10;99.90
12948;DHT22;6539;49.476;8.484;2022-11-30T10:39:40;10.20;99.90
12948;DHT22;6539;49.476;8.484;2022-11-30T10:42:20;10.30;99.90
12948;DHT22;6539;49.476;8.484;2022-11-30T10:44:59;10.40;99.90
12948;DHT22;6539;49.476;8.484;2022-11-30T10:47:33;10.60;99.90
12948;DHT22;6539;49.476;8.484;2022-11-30T10:50:05;10.50;99.90
12948;DHT22;6539;49.476;8.484;2022-11-30T10:52:46;10.50;99.90
12948;DHT22;6539;49.476;8.484;2022-11-30T10:55:28;10.80;99.90
12948;DHT22;6539;49.476;8.484;2022-11-30T10:58:20;10.70;99.90
12948;DHT22;6539;49.476;8.484;2022-11-30T11:03:29;10.60;99.90
12948;DHT22;6539;49.476;8.484;2022-11-30T11:06:18;10.60;99.90
12948;DHT22;6539;49.476;8.484;2022-11-30T11:08:50;10.70;99.90
12948;DHT22;6539;49.476;8.484;2022-11-30T11:11:45;10.70;99.90
12948;DHT22;6539;49.476;8.484;2022-11-30T11:14:22;10.70;99.90
12948;DHT22;6539;49.476;8.484;2022-11-30T11:19:45;10.70;99.90
12948;DHT22;6539;49.476;8.484;2022-11-30T11:22:18;10.90;99.90
12948;DHT22;6539;49.476;8.484;2022-11-30T11:24:45;10.80;99.90
12948;DHT22;6539;49.476;8.484;2022-11-30T11:27:29;10.90;99.90
12948;DHT22;6539;49.476;8.484;2022-11-30T11:33:14;11.20;99.90
12948;DHT22;6539;49.476;8.484;2022-11-30T11:35:51;10.90;99.90
12948;DHT22;6539;49.476;8.484;2022-11-30T11:41:01;11.00;99.90
12948;DHT22;6539;49.476;8.484;2022-11-30T11:43:54;11.20;99.90
12948;DHT22;6539;49.476;8.484;2022-11-30T11:46:23;11.20;99.90
12948;DHT22;6539;49.476;8.484;2022-11-30T11:51:38;10.90;99.90
12948;DHT22;6539;49.476;8.484;2022-11-30T11:56:49;11.10;99.90
12948;DHT22;6539;49.476;8.484;2022-11-30T11:59:29;11.10;99.90
12948;DHT22;6539;49.476;8.484;2022-11-30T12:05:28;10.90;99.90
12948;DHT22;6539;49.476;8.484;2022-11-30T12:13:44;11.20;99.90
12948;DHT22;6539;49.476;8.484;2022-11-30T12:18:59;11.20;99.90
12948;DHT22;6539;49.476;8.484;2022-11-30T12:39:07;11.20;99.90
12948;DHT22;6539;49.476;8.484;2022-11-30T12:41:39;11.50;99.90
12948;DHT22;6539;49.476;8.484;2022-11-30T12:55:39;11.30;99.90
12948;DHT22;6539;49.476;8.484;2022-11-30T13:05:10;11.20;99.90
12948;DHT22;6539;49.476;8.484;2022-11-30T13:07:58;11.20;99.90
12948;DHT22;6539;49.476;8.484;2022-11-30T13:10:29;11.30;99.90
12948;DHT22;6539;49.476;8.484;2022-11-30T13:13:01;11.40;99.90
12948;DHT22;6539;49.476;8.484;2022-11-30T13:15:32;10.90;99.90
12948;DHT22;6539;49.476;8.484;2022-11-30T13:17:59;11.00;99.90
12948;DHT22;6539;49.476;8.484;2022-11-30T13:32:22;10.90;99.90
12948;DHT22;6539;49.476;8.484;2022-11-30T13:34:49;10.70;99.90
12948;DHT22;6539;49.476;8.484;2022-11-30T13:37:20;10.90;99.90
12948;DHT22;6539;49.476;8.484;2022-11-30T13:39:50;10.80;99.90
12948;DHT22;6539;49.476;8.484;2022-11-30T13:42:33;10.90;99.90
12948;DHT22;6539;49.476;8.484;2022-11-30T13:47:53;10.70;99.90
12948;DHT22;6539;49.476;8.484;2022-11-30T13:50:36;11.10;99.90
12948;DHT22;6539;49.476;8.484;2022-11-30T13:53:23;10.80;99.90
12948;DHT22;6539;49.476;8.484;2022-11-30T13:55:54;10.90;99.90
12948;DHT22;6539;49.476;8.484;2022-11-30T13:58:32;10.90;99.90
12948;DHT22;6539;49.476;8.484;2022-11-30T14:01:20;11.40;99.90
12948;DHT22;6539;49.476;8.484;2022-11-30T14:06:53;10.90;99.90
12948;DHT22;6539;49.476;8.484;2022-11-30T14:14:59;10.70;99.90
12948;DHT22;6539;49.476;8.484;2022-11-30T14:17:32;10.80;99.90
12948;DHT22;6539;49.476;8.484;2022-11-30T14:20:31;10.80;99.90
12948;DHT22;6539;49.476;8.484;2022-11-30T14:23:06;10.80;99.90
12948;DHT22;6539;49.476;8.484;2022-11-30T14:25:46;10.70;99.90
12948;DHT22;6539;49.476;8.484;2022-11-30T14:28:27;10.90;99.90
12948;DHT22;6539;49.476;8.484;2022-11-30T14:31:06;10.70;99.90
12948;DHT22;6539;49.476;8.484;2022-11-30T14:33:44;10.80;99.90
12948;DHT22;6539;49.476;8.484;2022-11-30T14:36:18;10.90;99.90
12948;DHT22;6539;49.476;8.484;2022-11-30T14:38:48;10.80;99.90
12948;DHT22;6539;49.476;8.484;2022-11-30T14:41:27;10.80;99.90
12948;DHT22;6539;49.476;8.484;2022-11-30T14:43:59;10.80;99.90
12948;DHT22;6539;49.476;8.484;2022-11-30T14:46:28;10.70;99.90
12948;DHT22;6539;49.476;8.484;2022-11-30T14:49:22;10.70;99.90
12948;DHT22;6539;49.476;8.484;2022-11-30T14:52:03;10.80;99.90
12948;DHT22;6539;49.476;8.484;2022-11-30T14:54:45;10.70;99.90
12948;DHT22;6539;49.476;8.484;2022-11-30T15:00:35;10.40;99.90
12948;DHT22;6539;49.476;8.484;2022-11-30T15:05:53;10.70;99.90
12948;DHT22;6539;49.476;8.484;2022-11-30T15:09:12;10.80;99.90
12948;DHT22;6539;49.476;8.484;2022-11-30T15:11:26;10.50;99.90
12948;DHT22;6539;49.476;8.484;2022-11-30T15:13:55;10.70;99.90
12948;DHT22;6539;49.476;8.484;2022-11-30T15:16:28;10.70;99.90
12948;DHT22;6539;49.476;8.484;2022-11-30T15:18:57;10.50;99.90
12948;DHT22;6539;49.476;8.484;2022-11-30T15:21:28;10.70;99.90
12948;DHT22;6539;49.476;8.484;2022-11-30T15:24:00;10.70;99.90
12948;DHT22;6539;49.476;8.484;2022-11-30T15:29:46;10.70;99.90
12948;DHT22;6539;49.476;8.484;2022-11-30T15:32:25;10.70;99.90
12948;DHT22;6539;49.476;8.484;2022-11-30T15:37:28;10.70;99.90
12948;DHT22;6539;49.476;8.484;2022-11-30T15:39:57;10.70;99.90
12948;DHT22;6539;49.476;8.484;2022-11-30T15:42:33;10.70;99.90
12948;DHT22;6539;49.476;8.484;2022-11-30T15:45:24;10.60;99.90
12948;DHT22;6539;49.476;8.484;2022-11-30T15:48:29;10.60;99.90
12948;DHT22;6539;49.476;8.484;2022-11-30T15:50:58;10.50;99.90
12948;DHT22;6539;49.476;8.484;2022-11-30T15:53:50;10.60;99.90
12948;DHT22;6539;49.476;8.484;2022-11-30T15:56:28;10.60;99.90
12948;DHT22;6539;49.476;8.484;2022-11-30T16:01:26;10.50;99.90
12948;DHT22;6539;49.476;8.484;2022-11-30T16:04:04;10.50;99.90
12948;DHT22;6539;49.476;8.484;2022-11-30T16:06:45;10.40;99.90
12948;DHT22;6539;49.476;8.484;2022-11-30T16:09:26;10.50;99.90
12948;DHT22;6539;49.476;8.484;2022-11-30T16:11:58;10.60;99.90
12948;DHT22;6539;49.476;8.484;2022-11-30T16:14:28;10.90;99.90
12948;DHT22;6539;49.476;8.484;2022-11-30T16:16:54;10.50;99.90
12948;DHT22;6539;49.476;8.484;2022-11-30T16:19:21;10.40;99.90
12948;DHT22;6539;49.476;8.484;2022-11-30T16:21:50;10.30;99.90
12948;DHT22;6539;49.476;8.484;2022-11-30T16:24:16;10.80;99.90
12948;DHT22;6539;49.476;8.484;2022-11-30T16:26:44;10.70;99.90
12948;DHT22;6539;49.476;8.484;2022-11-30T16:31:38;10.40;99.90
12948;DHT22;6539;49.476;8.484;2022-11-30T16:34:04;10.60;99.90
12948;DHT22;6539;49.476;8.484;2022-11-30T16:36:36;10.40;99.90
12948;DHT22;6539;49.476;8.484;2022-11-30T16:39:02;10.40;99.90
12948;DHT22;6539;49.476;8.484;2022-11-30T16:41:31;10.40;99.90
12948;DHT22;6539;49.476;8.484;2022-11-30T16:43:59;10.40;99.90
12948;DHT22;6539;49.476;8.484;2022-11-30T16:46:28;10.30;99.90
12948;DHT22;6539;49.476;8.484;2022-11-30T16:48:55;10.40;99.90
12948;DHT22;6539;49.476;8.484;2022-11-30T16:51:28;10.30;99.90
12948;DHT22;6539;49.476;8.484;2022-11-30T16:53:56;10.20;99.90
12948;DHT22;6539;49.476;8.484;2022-11-30T16:56:25;10.30;99.90
12948;DHT22;6539;49.476;8.484;2022-11-30T16:58:53;10.40;99.90
12948;DHT22;6539;49.476;8.484;2022-11-30T17:04:16;10.10;99.90
12948;DHT22;6539;49.476;8.484;2022-11-30T17:06:44;10.30;99.90
12948;DHT22;6539;49.476;8.484;2022-11-30T17:09:14;10.30;99.90
12948;DHT22;6539;49.476;8.484;2022-11-30T17:11:43;10.30;99.90
12948;DHT22;6539;49.476;8.484;2022-11-30T17:14:13;10.10;99.90
12948;DHT22;6539;49.476;8.484;2022-11-30T17:16:41;10.20;99.90
12948;DHT22;6539;49.476;8.484;2022-11-30T17:19:08;10.40;99.90
12948;DHT22;6539;49.476;8.484;2022-11-30T17:21:35;10.30;99.90
12948;DHT22;6539;49.476;8.484;2022-11-30T17:24:06;10.00;99.90
12948;DHT22;6539;49.476;8.484;2022-11-30T17:26:34;10.10;99.90
12948;DHT22;6539;49.476;8.484;2022-11-30T17:29:07;10.50;99.90
12948;DHT22;6539;49.476;8.484;2022-11-30T17:31:35;10.30;99.90
12948;DHT22;6539;49.476;8.484;2022-11-30T17:34:01;10.40;99.90
12948;DHT22;6539;49.476;8.484;2022-11-30T17:36:27;10.40;99.90
12948;DHT22;6539;49.476;8.484;2022-11-30T17:38:56;10.30;99.90
12948;DHT22;6539;49.476;8.484;2022-11-30T17:41:22;10.10;99.90
12948;DHT22;6539;49.476;8.484;2022-11-30T17:43:48;10.30;99.90
12948;DHT22;6539;49.476;8.484;2022-11-30T17:46:15;10.30;99.90
12948;DHT22;6539;49.476;8.484;2022-11-30T17:48:45;10.50;99.90
12948;DHT22;6539;49.476;8.484;2022-11-30T17:51:14;10.20;99.90
12948;DHT22;6539;49.476;8.484;2022-11-30T17:53:42;10.30;99.90
12948;DHT22;6539;49.476;8.484;2022-11-30T17:56:13;10.10;99.90
12948;DHT22;6539;49.476;8.484;2022-11-30T17:58:41;10.30;99.90
12948;DHT22;6539;49.476;8.484;2022-11-30T18:01:18;10.00;99.90
12948;DHT22;6539;49.476;8.484;2022-11-30T18:03:54;10.00;99.90
12948;DHT22;6539;49.476;8.484;2022-11-30T18:06:21;10.00;99.90
12948;DHT22;6539;49.476;8.484;2022-11-30T18:11:18;10.10;99.90
12948;DHT22;6539;49.476;8.484;2022-11-30T18:13:52;10.10;99.90
12948;DHT22;6539;49.476;8.484;2022-11-30T18:16:26;10.20;99.90
12948;DHT22;6539;49.476;8.484;2022-11-30T18:18:57;10.10;99.90
12948;DHT22;6539;49.476;8.484;2022-11-30T18:21:26;10.30;99.90
12948;DHT22;6539;49.476;8.484;2022-11-30T18:23:54;10.20;99.90
12948;DHT22;6539;49.476;8.484;2022-11-30T18:26:25;9.40;99.90
12948;DHT22;6539;49.476;8.484;2022-11-30T18:28:56;10.00;99.90
12948;DHT22;6539;49.476;8.484;2022-11-30T18:31:23;10.20;99.90
12948;DHT22;6539;49.476;8.484;2022-11-30T18:33:54;10.10;99.90
12948;DHT22;6539;49.476;8.484;2022-11-30T18:36:26;10.00;99.90
12948;DHT22;6539;49.476;8.484;2022-11-30T18:38:52;9.80;99.90
12948;DHT22;6539;49.476;8.484;2022-11-30T18:41:23;10.30;99.90
12948;DHT22;6539;49.476;8.484;2022-11-30T18:43:51;10.00;99.90
12948;DHT22;6539;49.476;8.484;2022-11-30T18:46:18;9.90;99.90
12948;DHT22;6539;49.476;8.484;2022-11-30T18:48:48;10.00;99.90
12948;DHT22;6539;49.476;8.484;2022-11-30T18:51:21;10.00;99.90
12948;DHT22;6539;49.476;8.484;2022-11-30T18:53:55;10.00;99.90
12948;DHT22;6539;49.476;8.484;2022-11-30T18:56:26;10.10;99.90
12948;DHT22;6539;49.476;8.484;2022-11-30T18:58:59;9.80;99.90
12948;DHT22;6539;49.476;8.484;2022-11-30T19:01:26;10.10;99.90
12948;DHT22;6539;49.476;8.484;2022-11-30T19:04:05;9.90;99.90